createdAt,value
2018-03-26T00:01:38.586Z,2.50
2018-03-26T00:04:12.404Z,2.50
2018-03-26T00:06:40.887Z,2.50
2018-03-26T00:09:09.353Z,2.50
2018-03-26T00:11:37.928Z,2.40
2018-03-26T00:14:09.497Z,2.40
2018-03-26T00:16:38.657Z,2.40
2018-03-26T00:19:07.088Z,2.40
2018-03-26T00:21:35.471Z,2.40
2018-03-26T00:24:04.640Z,2.30
2018-03-26T00:26:34.645Z,2.20
2018-03-26T00:29:03.117Z,2.30
2018-03-26T00:31:31.688Z,2.40
2018-03-26T00:34:00.125Z,2.40
2018-03-26T00:36:29.298Z,2.50
2018-03-26T00:38:57.899Z,2.50
2018-03-26T00:41:26.385Z,2.50
2018-03-26T00:43:54.778Z,2.60
2018-03-26T00:46:23.279Z,2.70
2018-03-26T00:48:55.996Z,2.70
2018-03-26T00:51:24.451Z,2.80
2018-03-26T00:53:52.882Z,2.80
2018-03-26T00:56:21.283Z,2.80
2018-03-26T00:58:49.767Z,2.80
2018-03-26T01:01:18.212Z,2.80
2018-03-26T01:03:46.647Z,2.80
2018-03-26T01:06:18.190Z,2.90
2018-03-26T01:08:46.777Z,2.90
2018-03-26T01:11:16.027Z,2.90
2018-03-26T01:13:44.503Z,2.90
2018-03-26T01:16:13.668Z,3.00
2018-03-26T01:18:42.805Z,3.00
2018-03-26T01:21:11.230Z,3.00
2018-03-26T01:23:39.836Z,3.00
2018-03-26T01:26:08.281Z,3.00
2018-03-26T01:28:36.911Z,3.00
2018-03-26T01:31:05.533Z,2.90
2018-03-26T01:33:39.374Z,3.00
2018-03-26T01:36:07.901Z,3.00
2018-03-26T01:38:36.360Z,3.00
2018-03-26T01:41:05.788Z,3.00
2018-03-26T01:43:34.183Z,3.00
2018-03-26T01:46:02.590Z,3.10
2018-03-26T01:48:31.050Z,3.20
2018-03-26T01:51:00.203Z,3.00
2018-03-26T01:53:28.931Z,3.00
2018-03-26T01:55:57.566Z,3.00
2018-03-26T01:58:26.018Z,3.00
2018-03-26T02:00:54.441Z,3.00
2018-03-26T02:03:23.058Z,2.90
2018-03-26T02:05:52.395Z,2.80
2018-03-26T02:08:20.905Z,2.80
2018-03-26T02:10:50.120Z,3.00
2018-03-26T02:13:19.355Z,3.00
2018-03-26T02:15:47.785Z,3.00
2018-03-26T02:18:17.595Z,3.00
2018-03-26T02:20:46.172Z,2.90
2018-03-26T02:23:14.602Z,2.80
2018-03-26T02:25:43.779Z,2.80
2018-03-26T02:28:12.369Z,2.70
2018-03-26T02:30:41.607Z,2.80
2018-03-26T02:33:10.189Z,2.70
2018-03-26T02:35:38.578Z,2.70
2018-03-26T02:38:07.040Z,2.60
2018-03-26T02:40:36.842Z,2.60
2018-03-26T02:43:05.409Z,2.60
2018-03-26T02:45:34.997Z,2.60
2018-03-26T02:48:13.980Z,2.60
2018-03-26T02:50:42.412Z,2.60
2018-03-26T02:53:11.572Z,2.60
2018-03-26T02:55:40.161Z,2.60
2018-03-26T02:58:08.578Z,2.40
2018-03-26T03:00:37.024Z,2.40
2018-03-26T03:03:05.464Z,2.40
2018-03-26T03:05:34.073Z,2.40
2018-03-26T03:08:02.507Z,2.40
2018-03-26T03:10:30.915Z,2.40
2018-03-26T03:13:00.320Z,2.50
2018-03-26T03:15:28.751Z,2.60
2018-03-26T03:17:57.967Z,2.60
2018-03-26T03:20:26.393Z,2.60
2018-03-26T03:22:58.019Z,2.60
2018-03-26T03:25:26.457Z,2.50
2018-03-26T03:27:54.918Z,2.60
2018-03-26T03:30:24.320Z,2.60
2018-03-26T03:32:53.519Z,2.60
2018-03-26T03:35:22.388Z,2.60
2018-03-26T03:37:51.579Z,2.60
2018-03-26T03:40:20.009Z,2.60
2018-03-26T03:42:48.513Z,2.50
2018-03-26T03:45:22.401Z,2.50
2018-03-26T03:47:52.127Z,2.40
2018-03-26T03:50:20.560Z,2.40
2018-03-26T03:52:49.018Z,2.40
2018-03-26T03:55:17.467Z,2.40
2018-03-26T03:57:46.612Z,2.50
2018-03-26T04:00:15.064Z,2.50
2018-03-26T04:02:43.505Z,2.50
2018-03-26T04:05:16.538Z,2.50
2018-03-26T04:07:44.924Z,2.50
2018-03-26T04:10:16.962Z,2.50
2018-03-26T04:12:45.375Z,2.60
2018-03-26T04:15:13.759Z,2.50
2018-03-26T04:17:43.154Z,2.60
2018-03-26T04:20:11.756Z,2.60
2018-03-26T04:22:41.040Z,2.60
2018-03-26T04:25:11.127Z,2.60
2018-03-26T04:27:39.580Z,2.60
2018-03-26T04:30:08.210Z,2.60
2018-03-26T04:32:42.023Z,2.60
2018-03-26T04:35:10.961Z,2.60
2018-03-26T04:37:39.421Z,2.50
2018-03-26T04:40:08.692Z,2.50
2018-03-26T04:42:37.137Z,2.50
2018-03-26T04:45:05.550Z,2.50
2018-03-26T04:47:33.972Z,2.50
2018-03-26T04:50:02.408Z,2.50
2018-03-26T04:52:30.859Z,2.60
2018-03-26T04:54:59.326Z,2.70
2018-03-26T04:57:33.233Z,2.60
2018-03-26T05:00:01.858Z,2.60
2018-03-26T05:02:30.282Z,2.70
2018-03-26T05:04:58.873Z,2.70
2018-03-26T05:07:27.256Z,2.90
2018-03-26T05:09:56.065Z,2.80
2018-03-26T05:12:24.478Z,2.80
2018-03-26T05:14:53.684Z,2.90
2018-03-26T05:17:22.093Z,2.90
2018-03-26T05:19:51.972Z,2.90
2018-03-26T05:22:20.448Z,2.80
2018-03-26T05:24:49.102Z,2.90
2018-03-26T05:27:17.512Z,2.90
2018-03-26T05:29:45.944Z,3.00
2018-03-26T05:32:14.469Z,3.10
2018-03-26T05:34:43.054Z,3.10
2018-03-26T05:37:11.660Z,3.10
2018-03-26T05:39:40.113Z,3.10
2018-03-26T05:42:12.122Z,3.10
2018-03-26T05:44:40.745Z,3.30
2018-03-26T05:47:10.305Z,3.20
2018-03-26T05:49:38.744Z,3.20
2018-03-26T05:52:07.129Z,3.30
2018-03-26T05:54:37.101Z,3.40
2018-03-26T05:57:05.691Z,3.40
2018-03-26T05:59:34.117Z,3.40
2018-03-26T06:02:02.558Z,3.30
2018-03-26T06:04:34.553Z,3.30
2018-03-26T06:07:03.137Z,3.30
2018-03-26T06:09:31.581Z,3.10
2018-03-26T06:12:00.030Z,3.20
2018-03-26T06:14:28.639Z,3.30
2018-03-26T06:17:09.815Z,3.40
2018-03-26T06:19:38.224Z,3.40
2018-03-26T06:22:06.641Z,3.50
2018-03-26T06:24:39.533Z,3.70
2018-03-26T06:27:07.955Z,3.70
2018-03-26T06:29:36.442Z,3.80
2018-03-26T06:32:04.839Z,3.90
2018-03-26T06:34:33.402Z,4.00
2018-03-26T06:37:17.537Z,4.00
2018-03-26T06:39:45.941Z,4.00
2018-03-26T06:42:14.399Z,4.10
2018-03-26T06:44:48.460Z,4.20
2018-03-26T06:47:17.813Z,4.30
2018-03-26T06:49:46.272Z,4.30
2018-03-26T06:52:14.669Z,4.30
2018-03-26T06:54:43.898Z,4.40
2018-03-26T06:57:12.315Z,4.40
2018-03-26T06:59:40.786Z,4.40
2018-03-26T07:02:09.226Z,4.50
2018-03-26T07:04:38.497Z,4.50
2018-03-26T07:07:12.154Z,4.60
2018-03-26T07:09:41.485Z,4.60
2018-03-26T07:12:09.887Z,4.60
2018-03-26T07:14:38.358Z,4.60
2018-03-26T07:17:06.772Z,4.60
2018-03-26T07:19:36.070Z,4.60
2018-03-26T07:22:04.491Z,4.60
2018-03-26T07:24:33.069Z,4.60
2018-03-26T07:27:02.399Z,4.60
2018-03-26T07:29:32.278Z,4.70
2018-03-26T07:32:00.712Z,4.70
2018-03-26T07:34:50.353Z,4.80
2018-03-26T07:37:18.777Z,4.80
2018-03-26T07:39:47.226Z,4.90
2018-03-26T07:42:16.387Z,5.00
2018-03-26T07:44:45.201Z,5.00
2018-03-26T07:47:13.691Z,5.10
2018-03-26T07:49:45.465Z,5.10
2018-03-26T07:52:14.789Z,5.20
2018-03-26T07:54:43.198Z,5.20
2018-03-26T07:57:11.616Z,5.30
2018-03-26T07:59:40.041Z,5.30
2018-03-26T08:02:09.301Z,5.40
2018-03-26T08:04:39.274Z,5.50
2018-03-26T08:07:07.899Z,5.50
2018-03-26T08:09:36.346Z,5.50
2018-03-26T08:12:04.758Z,5.50
2018-03-26T08:14:33.203Z,5.50
2018-03-26T08:17:01.713Z,5.60
2018-03-26T08:19:30.242Z,5.60
2018-03-26T08:21:58.622Z,5.70
2018-03-26T08:24:27.034Z,5.70
2018-03-26T08:26:55.599Z,5.70
2018-03-26T08:29:24.331Z,5.70
2018-03-26T08:31:52.722Z,5.70
2018-03-26T08:34:22.509Z,5.70
2018-03-26T08:36:50.955Z,5.70
2018-03-26T08:39:19.391Z,5.70
2018-03-26T08:41:47.812Z,5.70
2018-03-26T08:44:16.405Z,5.70
2018-03-26T08:46:44.830Z,5.80
2018-03-26T08:49:13.455Z,5.70
2018-03-26T08:51:41.848Z,5.70
2018-03-26T08:54:10.293Z,5.80
2018-03-26T08:56:44.156Z,5.80
2018-03-26T08:59:18.099Z,5.80
2018-03-26T09:01:46.718Z,5.90
2018-03-26T09:04:15.889Z,6.00
2018-03-26T09:06:44.372Z,5.90
2018-03-26T09:09:13.566Z,6.10
2018-03-26T09:11:44.001Z,6.10
2018-03-26T09:14:12.424Z,6.10
2018-03-26T09:16:40.993Z,6.20
2018-03-26T09:19:19.865Z,6.20
2018-03-26T09:21:53.748Z,6.20
2018-03-26T09:24:27.441Z,6.20
2018-03-26T09:26:58.330Z,6.20
2018-03-26T09:29:26.781Z,6.30
2018-03-26T09:31:56.877Z,6.30
2018-03-26T09:34:25.347Z,6.30
2018-03-26T09:36:54.541Z,6.30
2018-03-26T09:39:22.933Z,6.20
2018-03-26T09:41:51.374Z,6.30
2018-03-26T09:44:19.781Z,6.30
2018-03-26T09:46:48.218Z,6.40
2018-03-26T09:49:22.119Z,6.30
2018-03-26T09:51:51.196Z,6.30
2018-03-26T09:54:21.404Z,6.30
2018-03-26T09:56:49.980Z,6.30
2018-03-26T09:59:18.384Z,6.30
2018-03-26T10:01:53.242Z,6.40
2018-03-26T10:04:21.597Z,6.30
2018-03-26T10:06:50.788Z,6.60
2018-03-26T10:09:19.369Z,6.60
2018-03-26T10:11:47.969Z,6.70
2018-03-26T10:14:22.816Z,6.90
2018-03-26T10:16:51.294Z,6.90
2018-03-26T10:19:19.721Z,6.90
2018-03-26T10:21:48.479Z,7.10
2018-03-26T10:24:16.890Z,7.20
2018-03-26T10:26:46.156Z,7.30
2018-03-26T10:29:14.682Z,7.30
2018-03-26T10:31:43.249Z,7.50
2018-03-26T10:34:11.633Z,7.50
2018-03-26T10:36:45.658Z,7.60
2018-03-26T10:39:14.049Z,7.50
2018-03-26T10:41:42.612Z,7.60
2018-03-26T10:44:12.159Z,7.80
2018-03-26T10:46:40.580Z,7.80
2018-03-26T10:49:09.015Z,8.00
2018-03-26T10:51:45.858Z,8.10
2018-03-26T10:54:15.040Z,8.20
2018-03-26T10:56:43.410Z,8.20
2018-03-26T10:59:12.763Z,8.30
2018-03-26T11:01:41.333Z,8.30
2018-03-26T11:04:09.691Z,8.40
2018-03-26T11:06:38.112Z,8.40
2018-03-26T11:09:07.439Z,8.40
2018-03-26T11:11:36.079Z,8.40
2018-03-26T11:14:05.061Z,8.00
2018-03-26T11:16:35.407Z,7.70
2018-03-26T11:19:09.095Z,7.40
2018-03-26T11:21:42.771Z,7.10
2018-03-26T11:24:11.157Z,6.90
2018-03-26T11:26:40.300Z,6.70
2018-03-26T11:29:08.919Z,6.70
2018-03-26T11:31:37.324Z,6.80
2018-03-26T11:34:06.481Z,7.00
2018-03-26T11:36:34.931Z,7.00
2018-03-26T11:39:03.787Z,7.10
2018-03-26T11:41:32.223Z,7.10
2018-03-26T11:44:03.108Z,7.20
2018-03-26T11:46:31.545Z,7.30
2018-03-26T11:48:59.924Z,7.30
2018-03-26T11:51:28.465Z,7.40
2018-03-26T11:53:56.870Z,7.40
2018-03-26T11:56:25.465Z,7.30
2018-03-26T11:58:53.854Z,7.00
2018-03-26T12:01:23.095Z,6.60
2018-03-26T12:03:51.474Z,6.40
2018-03-26T12:06:20.085Z,6.00
2018-03-26T12:08:48.498Z,5.70
2018-03-26T12:11:16.888Z,5.50
2018-03-26T12:13:46.072Z,5.30
2018-03-26T12:16:14.642Z,5.30
2018-03-26T12:18:43.053Z,5.10
2018-03-26T12:21:11.464Z,4.80
2018-03-26T12:23:52.501Z,4.50
2018-03-26T12:26:24.252Z,4.40
2018-03-26T12:29:04.531Z,4.20
2018-03-26T12:31:33.736Z,4.10
2018-03-26T12:34:14.020Z,4.00
2018-03-26T12:36:43.209Z,3.80
2018-03-26T12:39:12.341Z,3.40
2018-03-26T12:41:40.931Z,3.40
2018-03-26T12:44:09.311Z,3.10
2018-03-26T12:46:44.881Z,3.00
2018-03-26T12:49:13.484Z,2.90
2018-03-26T12:51:53.765Z,2.90
2018-03-26T12:54:22.136Z,2.90
2018-03-26T12:57:02.451Z,2.80
2018-03-26T12:59:31.803Z,2.90
2018-03-26T13:02:12.031Z,2.80
2018-03-26T13:04:40.416Z,2.90
2018-03-26T13:07:10.324Z,2.80
2018-03-26T13:09:39.527Z,2.90
2018-03-26T13:12:08.077Z,2.90
2018-03-26T13:14:36.539Z,2.90
2018-03-26T13:17:04.958Z,3.00
2018-03-26T13:19:35.297Z,3.00
2018-03-26T13:22:03.702Z,2.90
2018-03-26T13:24:32.072Z,2.90
2018-03-26T13:27:00.474Z,2.80
2018-03-26T13:29:29.042Z,2.70
2018-03-26T13:31:57.571Z,2.80
2018-03-26T13:34:25.969Z,2.90
2018-03-26T13:36:55.008Z,3.00
2018-03-26T13:39:23.392Z,3.00
2018-03-26T13:41:51.858Z,3.00
2018-03-26T13:44:21.002Z,3.00
2018-03-26T13:46:49.439Z,2.90
2018-03-26T13:49:18.797Z,2.80
2018-03-26T13:51:53.472Z,2.70
2018-03-26T13:54:23.389Z,2.70
2018-03-26T13:56:51.770Z,2.70
2018-03-26T13:59:30.695Z,2.70
2018-03-26T14:01:59.291Z,2.70
2018-03-26T14:04:27.724Z,2.80
2018-03-26T14:06:56.163Z,2.80
2018-03-26T14:09:37.366Z,3.00
2018-03-26T14:12:17.619Z,3.00
2018-03-26T14:15:03.244Z,3.00
2018-03-26T14:17:43.561Z,2.90
2018-03-26T14:20:11.959Z,2.90
2018-03-26T14:22:41.301Z,2.60
2018-03-26T14:25:09.869Z,2.60
2018-03-26T14:27:38.426Z,2.50
2018-03-26T14:30:06.818Z,2.50
2018-03-26T14:32:35.179Z,2.40
2018-03-26T14:35:15.211Z,2.50
2018-03-26T14:37:44.527Z,2.30
2018-03-26T14:40:12.979Z,2.30
2018-03-26T14:42:41.366Z,2.10
2018-03-26T14:45:10.536Z,2.20
2018-03-26T14:47:38.918Z,2.20
2018-03-26T14:50:07.983Z,2.10
2018-03-26T14:52:36.405Z,1.80
2018-03-26T14:55:10.314Z,1.70
2018-03-26T14:57:45.220Z,1.70
2018-03-26T15:00:13.596Z,1.70
2018-03-26T15:02:42.044Z,1.70
2018-03-26T15:05:10.598Z,1.70
2018-03-26T15:07:38.952Z,1.70
2018-03-26T15:10:07.344Z,1.80
2018-03-26T15:12:35.740Z,1.80
2018-03-26T15:15:04.293Z,1.80
2018-03-26T15:17:32.989Z,1.70
2018-03-26T15:20:06.956Z,1.70
2018-03-26T15:22:39.790Z,1.60
2018-03-26T15:25:08.175Z,1.60
2018-03-26T15:27:36.552Z,1.60
2018-03-26T15:30:05.104Z,1.60
2018-03-26T15:32:33.537Z,1.50
2018-03-26T15:35:02.067Z,1.30
2018-03-26T15:37:30.426Z,1.20
2018-03-26T15:39:59.623Z,1.20
2018-03-26T15:42:27.988Z,1.20
2018-03-26T15:44:56.347Z,1.10
2018-03-26T15:47:24.764Z,1.00
2018-03-26T15:49:53.153Z,0.90
2018-03-26T15:52:21.556Z,0.90
2018-03-26T15:54:49.955Z,0.80
2018-03-26T15:57:18.355Z,0.80
2018-03-26T15:59:46.913Z,0.70
2018-03-26T16:02:15.937Z,0.70
2018-03-26T16:04:44.320Z,0.80
2018-03-26T16:07:18.936Z,0.90
2018-03-26T16:09:47.355Z,0.90
2018-03-26T16:12:15.731Z,0.90
2018-03-26T16:14:44.897Z,1.00
2018-03-26T16:17:13.310Z,1.00
2018-03-26T16:19:42.550Z,1.10
2018-03-26T16:22:10.982Z,1.10
2018-03-26T16:24:40.543Z,0.90
2018-03-26T16:27:09.101Z,0.90
2018-03-26T16:29:43.966Z,0.80
2018-03-26T16:32:17.460Z,0.50
2018-03-26T16:34:46.874Z,0.40
2018-03-26T16:37:15.280Z,0.30
2018-03-26T16:39:43.652Z,0.30
2018-03-26T16:42:21.611Z,0.30
2018-03-26T16:44:50.793Z,0.30
2018-03-26T16:47:19.155Z,0.20
2018-03-26T16:49:47.546Z,0.20
2018-03-26T16:52:15.934Z,0.20
2018-03-26T16:54:45.248Z,0.30
2018-03-26T16:57:13.799Z,0.30
2018-03-26T16:59:42.256Z,0.30
2018-03-26T17:02:11.323Z,0.20
2018-03-26T17:04:39.706Z,0.30
2018-03-26T17:07:08.255Z,0.30
2018-03-26T17:09:36.811Z,0.10
2018-03-26T17:12:05.214Z,0.10
2018-03-26T17:14:35.980Z,0.10
2018-03-26T17:17:04.555Z,0.10
2018-03-26T17:19:33.136Z,0.10
2018-03-26T17:22:01.628Z,0.10
2018-03-26T17:24:30.020Z,0.20
2018-03-26T17:26:58.383Z,0.20
2018-03-26T17:29:27.724Z,0.10
2018-03-26T17:31:56.126Z,0.10
2018-03-26T17:34:24.480Z,0.10
2018-03-26T17:36:58.232Z,0.10
2018-03-26T17:39:26.643Z,0.20
2018-03-26T17:41:55.009Z,0.10
2018-03-26T17:44:23.408Z,0.10
2018-03-26T17:46:51.782Z,0.00
2018-03-26T17:49:20.162Z,0.00
2018-03-26T17:51:48.564Z,-0.10
2018-03-26T17:54:16.942Z,-0.10
2018-03-26T17:56:45.377Z,-0.10
2018-03-26T17:59:15.187Z,-0.10
2018-03-26T18:01:43.573Z,-0.20
2018-03-26T18:04:14.052Z,-0.10
2018-03-26T18:06:42.630Z,-0.10
2018-03-26T18:09:11.759Z,-0.30
2018-03-26T18:12:00.527Z,-0.30
2018-03-26T18:14:28.896Z,-0.40
2018-03-26T18:16:57.459Z,-0.30
2018-03-26T18:19:31.183Z,-0.30
2018-03-26T18:22:03.094Z,-0.20
2018-03-26T18:24:32.400Z,-0.20
2018-03-26T18:27:00.752Z,-0.20
2018-03-26T18:29:29.319Z,-0.20
2018-03-26T18:31:57.818Z,-0.10
2018-03-26T18:34:26.179Z,0.00
2018-03-26T18:36:55.523Z,-0.30
2018-03-26T18:39:24.073Z,-0.30
2018-03-26T18:41:52.528Z,-0.30
2018-03-26T18:44:20.907Z,-0.40
2018-03-26T18:46:49.335Z,-0.50
2018-03-26T18:49:18.847Z,-0.50
2018-03-26T18:51:48.160Z,-0.60
2018-03-26T18:54:17.398Z,-0.60
2018-03-26T18:56:45.931Z,-0.60
2018-03-26T18:59:14.604Z,-0.50
2018-03-26T19:01:42.988Z,-0.50
2018-03-26T19:04:12.195Z,-0.50
2018-03-26T19:06:42.754Z,-0.50
2018-03-26T19:09:11.152Z,-0.50
2018-03-26T19:11:39.687Z,-0.50
2018-03-26T19:14:08.820Z,-0.50
2018-03-26T19:16:37.262Z,-0.50
2018-03-26T19:19:06.542Z,-0.50
2018-03-26T19:21:34.895Z,-0.50
2018-03-26T19:24:03.307Z,-0.50
2018-03-26T19:26:32.249Z,-0.60
2018-03-26T19:29:07.773Z,-0.80
2018-03-26T19:31:37.286Z,-0.90
2018-03-26T19:34:06.427Z,-0.80
2018-03-26T19:36:34.837Z,-0.90
2018-03-26T19:39:03.231Z,-0.80
2018-03-26T19:41:31.779Z,-0.90
2018-03-26T19:44:00.180Z,-0.90
2018-03-26T19:46:29.499Z,-0.90
2018-03-26T19:48:57.864Z,-0.90
2018-03-26T19:51:27.169Z,-0.90
2018-03-26T19:53:55.556Z,-1.00
2018-03-26T19:56:23.971Z,-0.90
2018-03-26T19:58:52.314Z,-0.80
2018-03-26T20:01:21.641Z,-0.80
2018-03-26T20:03:50.042Z,-0.80
2018-03-26T20:06:18.407Z,-0.90
2018-03-26T20:08:46.794Z,-0.90
2018-03-26T20:11:15.215Z,-0.90
2018-03-26T20:13:43.604Z,-0.90
2018-03-26T20:16:11.998Z,-1.00
2018-03-26T20:18:40.408Z,-1.00
2018-03-26T20:21:08.862Z,-1.00
2018-03-26T20:23:37.216Z,-1.00
2018-03-26T20:26:05.622Z,-1.00
2018-03-26T20:28:34.225Z,-1.00
2018-03-26T20:31:02.810Z,-1.00
2018-03-26T20:33:36.549Z,-1.00
2018-03-26T20:36:04.912Z,-0.90
2018-03-26T20:38:33.320Z,-0.90
2018-03-26T20:41:01.705Z,-0.80
2018-03-26T20:43:30.128Z,-0.70
2018-03-26T20:45:58.484Z,-0.70
2018-03-26T20:48:26.917Z,-0.70
2018-03-26T20:50:56.187Z,-0.80
2018-03-26T20:53:24.549Z,-0.70
2018-03-26T20:55:52.933Z,-0.70
2018-03-26T20:58:22.765Z,-0.50
2018-03-26T21:00:51.158Z,-0.50
2018-03-26T21:03:19.532Z,-0.50
2018-03-26T21:05:47.958Z,-0.40
2018-03-26T21:08:16.379Z,-0.50
2018-03-26T21:10:44.758Z,-0.50
2018-03-26T21:13:13.174Z,-0.40
2018-03-26T21:15:41.551Z,-0.30
2018-03-26T21:18:09.934Z,-0.20
2018-03-26T21:20:43.643Z,-0.30
2018-03-26T21:23:12.060Z,-0.30
2018-03-26T21:25:40.480Z,-0.30
2018-03-26T21:28:09.795Z,-0.30
2018-03-26T21:30:38.184Z,-0.30
2018-03-26T21:33:06.614Z,-0.40
2018-03-26T21:35:34.997Z,-0.50
2018-03-26T21:38:03.534Z,-0.30
2018-03-26T21:40:32.040Z,-0.20
2018-03-26T21:43:02.544Z,-0.10
2018-03-26T21:45:30.936Z,-0.20
2018-03-26T21:47:59.475Z,-0.20
2018-03-26T21:50:28.008Z,-0.30
2018-03-26T21:52:56.436Z,-0.40
2018-03-26T21:55:25.007Z,-0.40
2018-03-26T21:57:53.469Z,-0.40
2018-03-26T22:00:22.084Z,-0.60
2018-03-26T22:02:50.471Z,-0.60
2018-03-26T22:05:21.781Z,-0.60
2018-03-26T22:07:50.131Z,-0.70
2018-03-26T22:10:18.559Z,-0.60
2018-03-26T22:12:46.985Z,-0.50
2018-03-26T22:15:15.384Z,-0.50
2018-03-26T22:17:43.946Z,-0.40
2018-03-26T22:20:12.510Z,-0.50
2018-03-26T22:22:42.334Z,-0.40
2018-03-26T22:25:10.909Z,-0.40
2018-03-26T22:27:42.628Z,-0.50
2018-03-26T22:30:11.194Z,-0.60
2018-03-26T22:32:39.562Z,-0.50
2018-03-26T22:35:07.931Z,-0.60
2018-03-26T22:37:36.478Z,-0.60
2018-03-26T22:40:05.063Z,-0.70
2018-03-26T22:42:34.193Z,-0.70
2018-03-26T22:45:02.602Z,-0.70
2018-03-26T22:47:31.180Z,-0.80
2018-03-26T22:50:05.821Z,-0.70
2018-03-26T22:52:39.652Z,-0.60
2018-03-26T22:55:08.233Z,-0.70
2018-03-26T22:57:36.781Z,-0.60
2018-03-26T23:00:05.353Z,-0.50
2018-03-26T23:02:33.736Z,-0.30
2018-03-26T23:05:02.139Z,-0.50
2018-03-26T23:07:30.565Z,-0.70
2018-03-26T23:09:59.108Z,-0.80
2018-03-26T23:12:27.892Z,-0.80
2018-03-26T23:15:01.715Z,-0.90
2018-03-26T23:17:33.586Z,-1.00
2018-03-26T23:20:01.962Z,-1.00
2018-03-26T23:22:49.155Z,-0.90
2018-03-26T23:25:17.619Z,-1.00
2018-03-26T23:27:45.988Z,-1.10
2018-03-26T23:30:14.418Z,-1.20
2018-03-26T23:32:42.801Z,-1.20
2018-03-26T23:35:11.188Z,-1.30
2018-03-26T23:37:40.559Z,-1.20
2018-03-26T23:40:09.077Z,-1.20
2018-03-26T23:42:37.464Z,-1.10
2018-03-26T23:45:05.842Z,-1.00
2018-03-26T23:47:35.153Z,-1.00
2018-03-26T23:50:03.591Z,-1.00
2018-03-26T23:52:32.013Z,-1.00
2018-03-26T23:55:00.358Z,-1.00
2018-03-26T23:57:28.899Z,-0.90
2018-03-26T23:59:58.774Z,-1.10
